createdAt,value
2023-04-12T00:01:02.692Z,13.40
2023-04-12T00:03:30.671Z,13.40
2023-04-12T00:05:57.536Z,13.40
2023-04-12T00:08:33.614Z,13.40
2023-04-12T00:11:01.364Z,13.40
2023-04-12T00:13:28.541Z,13.40
2023-04-12T00:15:55.441Z,13.30
2023-04-12T00:18:25.631Z,13.30
2023-04-12T00:20:53.194Z,13.50
2023-04-12T00:23:20.615Z,13.50
2023-04-12T00:25:47.559Z,13.60
2023-04-12T00:28:15.942Z,13.70
2023-04-12T00:30:43.008Z,13.60
2023-04-12T00:33:09.816Z,13.60
2023-04-12T00:35:36.586Z,13.50
2023-04-12T00:38:04.097Z,13.50
2023-04-12T00:40:31.022Z,13.40
2023-04-12T00:42:57.820Z,13.50
2023-04-12T00:45:24.553Z,13.50
2023-04-12T00:47:51.465Z,13.50
2023-04-12T00:50:18.289Z,13.30
2023-04-12T00:52:45.040Z,13.30
2023-04-12T00:55:12.031Z,13.30
2023-04-12T00:57:39.989Z,13.30
2023-04-12T01:00:14.034Z,13.30
2023-04-12T01:02:42.560Z,13.30
2023-04-12T01:05:14.815Z,13.30
2023-04-12T01:07:51.655Z,13.30
2023-04-12T01:10:24.413Z,13.20
2023-04-12T01:13:00.786Z,13.20
2023-04-12T01:15:28.908Z,13.20
2023-04-12T01:18:02.668Z,13.30
2023-04-12T01:20:36.094Z,13.30
2023-04-12T01:23:17.854Z,13.20
2023-04-12T01:25:47.401Z,13.20
2023-04-12T01:28:33.699Z,13.20
2023-04-12T01:31:03.929Z,13.20
2023-04-12T01:33:33.758Z,13.20
2023-04-12T01:36:01.837Z,13.20
2023-04-12T01:38:28.823Z,13.10
2023-04-12T01:40:55.769Z,13.10
2023-04-12T01:43:22.655Z,13.10
2023-04-12T01:45:49.729Z,13.20
2023-04-12T01:48:16.618Z,13.20
2023-04-12T01:50:49.396Z,13.20
2023-04-12T01:53:22.821Z,13.10
2023-04-12T01:55:50.846Z,13.10
2023-04-12T01:58:21.160Z,13.00
2023-04-12T02:00:49.199Z,13.00
2023-04-12T02:03:16.622Z,13.10
2023-04-12T02:05:43.545Z,13.10
2023-04-12T02:08:11.425Z,13.10
2023-04-12T02:10:40.435Z,13.20
2023-04-12T02:13:07.191Z,13.20
2023-04-12T02:15:34.347Z,13.30
2023-04-12T02:18:01.652Z,13.20
2023-04-12T02:20:28.531Z,13.30
2023-04-12T02:22:55.416Z,13.30
2023-04-12T02:25:22.177Z,13.30
2023-04-12T02:27:49.165Z,13.30
2023-04-12T02:30:16.148Z,13.30
2023-04-12T02:32:45.711Z,13.30
2023-04-12T02:35:13.279Z,13.30
2023-04-12T02:37:51.401Z,13.20
2023-04-12T02:40:18.092Z,13.40
2023-04-12T02:42:45.104Z,13.40
2023-04-12T02:45:11.998Z,13.40
2023-04-12T02:47:38.958Z,13.40
2023-04-12T02:50:06.127Z,13.40
2023-04-12T02:52:33.194Z,13.40
2023-04-12T02:55:00.230Z,13.40
2023-04-12T02:57:27.111Z,13.30
2023-04-12T02:59:54.343Z,13.20
2023-04-12T03:02:21.826Z,13.20
2023-04-12T03:04:51.030Z,13.20
2023-04-12T03:07:19.074Z,13.20
2023-04-12T03:09:49.710Z,13.20
2023-04-12T03:12:16.713Z,13.20
2023-04-12T03:14:43.662Z,13.30
2023-04-12T03:17:11.004Z,13.30
2023-04-12T03:19:38.059Z,13.30
2023-04-12T03:22:06.099Z,13.30
2023-04-12T03:24:37.226Z,13.40
2023-04-12T03:27:04.858Z,13.30
2023-04-12T03:29:31.867Z,13.30
2023-04-12T03:31:59.531Z,13.20
2023-04-12T03:34:32.579Z,13.20
2023-04-12T03:37:00.388Z,13.20
2023-04-12T03:39:27.374Z,13.30
2023-04-12T03:41:54.275Z,13.30
2023-04-12T03:44:21.423Z,13.30
2023-04-12T03:46:49.059Z,13.30
2023-04-12T03:49:16.789Z,13.30
2023-04-12T03:51:43.641Z,13.40
2023-04-12T03:54:10.777Z,13.30
2023-04-12T03:56:38.841Z,13.20
2023-04-12T03:59:07.739Z,13.20
2023-04-12T04:01:35.032Z,13.30
2023-04-12T04:04:02.636Z,13.20
2023-04-12T04:06:30.531Z,13.10
2023-04-12T04:08:57.672Z,13.10
2023-04-12T04:11:25.250Z,13.00
2023-04-12T04:13:52.074Z,13.00
2023-04-12T04:16:18.965Z,12.80
2023-04-12T04:18:46.036Z,12.80
2023-04-12T04:21:14.297Z,12.80
2023-04-12T04:23:45.130Z,13.00
2023-04-12T04:26:12.642Z,13.00
2023-04-12T04:28:42.176Z,13.10
2023-04-12T04:31:10.717Z,13.00
2023-04-12T04:33:39.038Z,13.00
2023-04-12T04:36:07.286Z,13.00
2023-04-12T04:38:34.027Z,13.00
2023-04-12T04:41:02.610Z,12.90
2023-04-12T04:43:34.181Z,13.00
2023-04-12T04:46:01.085Z,13.00
2023-04-12T04:48:30.080Z,13.00
2023-04-12T04:50:57.196Z,13.00
2023-04-12T04:53:24.008Z,13.00
2023-04-12T04:55:57.425Z,13.00
2023-04-12T04:58:24.189Z,12.90
2023-04-12T05:00:51.062Z,12.90
2023-04-12T05:03:18.646Z,12.80
2023-04-12T05:05:48.105Z,12.90
2023-04-12T05:08:14.812Z,12.80
2023-04-12T05:10:43.154Z,12.90
2023-04-12T05:13:10.120Z,12.90
2023-04-12T05:15:40.539Z,13.00
2023-04-12T05:18:07.340Z,13.00
2023-04-12T05:20:34.271Z,13.00
2023-04-12T05:23:01.232Z,12.90
2023-04-12T05:25:28.042Z,12.90
2023-04-12T05:27:54.823Z,12.90
2023-04-12T05:30:21.616Z,13.00
2023-04-12T05:32:48.591Z,13.10
2023-04-12T05:35:15.380Z,13.00
2023-04-12T05:37:42.103Z,13.00
2023-04-12T05:40:10.046Z,13.10
2023-04-12T05:42:39.685Z,13.10
2023-04-12T05:45:06.871Z,13.10
2023-04-12T05:47:33.709Z,13.00
2023-04-12T05:50:00.652Z,13.00
2023-04-12T05:52:27.338Z,13.10
2023-04-12T05:54:54.355Z,13.10
2023-04-12T05:57:21.240Z,13.30
2023-04-12T05:59:48.065Z,13.30
2023-04-12T06:02:15.112Z,13.30
2023-04-12T06:04:50.043Z,13.40
2023-04-12T06:07:19.480Z,13.40
2023-04-12T06:09:47.389Z,13.40
2023-04-12T06:12:14.199Z,13.40
2023-04-12T06:14:41.148Z,13.30
2023-04-12T06:17:07.982Z,13.30
2023-04-12T06:19:34.715Z,13.30
2023-04-12T06:22:01.499Z,13.30
2023-04-12T06:24:28.232Z,13.30
2023-04-12T06:26:54.912Z,13.30
2023-04-12T06:29:22.016Z,13.20
2023-04-12T06:31:49.036Z,13.10
2023-04-12T06:34:16.019Z,13.20
2023-04-12T06:36:43.689Z,13.10
2023-04-12T06:39:12.130Z,13.30
2023-04-12T06:41:38.878Z,13.20
2023-04-12T06:44:06.086Z,13.30
2023-04-12T06:46:33.006Z,13.30
2023-04-12T06:49:00.245Z,13.30
2023-04-12T06:51:28.289Z,13.30
2023-04-12T06:53:56.245Z,13.40
2023-04-12T06:56:23.220Z,13.50
2023-04-12T06:58:50.160Z,13.40
2023-04-12T07:01:17.860Z,13.30
2023-04-12T07:03:45.150Z,13.30
2023-04-12T07:06:24.232Z,13.20
2023-04-12T07:08:52.700Z,13.30
2023-04-12T07:11:22.435Z,13.30
2023-04-12T07:13:49.830Z,13.30
2023-04-12T07:16:17.173Z,13.30
2023-04-12T07:18:44.608Z,13.30
2023-04-12T07:21:14.375Z,13.20
2023-04-12T07:23:41.365Z,13.20
2023-04-12T07:26:08.124Z,13.30
2023-04-12T07:28:36.213Z,13.30
2023-04-12T07:31:06.742Z,13.40
2023-04-12T07:33:35.001Z,13.40
2023-04-12T07:36:02.043Z,13.40
2023-04-12T07:38:28.938Z,13.30
2023-04-12T07:40:56.265Z,13.40
2023-04-12T07:43:23.557Z,13.40
2023-04-12T07:45:50.569Z,13.40
2023-04-12T07:48:17.861Z,13.40
2023-04-12T07:50:44.616Z,13.60
2023-04-12T07:53:19.065Z,13.50
2023-04-12T07:55:46.217Z,13.60
2023-04-12T07:58:13.225Z,13.50
2023-04-12T08:00:40.109Z,13.50
2023-04-12T08:03:07.185Z,13.50
2023-04-12T08:05:34.542Z,13.60
2023-04-12T08:08:01.611Z,13.70
2023-04-12T08:10:29.107Z,13.60
2023-04-12T08:12:55.972Z,13.70
2023-04-12T08:15:23.053Z,13.60
2023-04-12T08:17:50.030Z,13.60
2023-04-12T08:20:17.054Z,13.70
2023-04-12T08:22:45.024Z,13.70
2023-04-12T08:25:11.780Z,13.70
2023-04-12T08:27:45.559Z,13.80
2023-04-12T08:30:12.535Z,13.80
2023-04-12T08:32:39.349Z,13.90
2023-04-12T08:35:06.693Z,13.90
2023-04-12T08:37:33.964Z,13.80
2023-04-12T08:40:02.455Z,13.80
2023-04-12T08:42:29.366Z,13.90
2023-04-12T08:44:56.198Z,13.80
2023-04-12T08:47:23.205Z,13.90
2023-04-12T08:49:50.565Z,13.80
2023-04-12T08:52:17.341Z,13.80
2023-04-12T08:54:44.174Z,13.80
2023-04-12T08:57:12.247Z,13.80
2023-04-12T08:59:39.625Z,13.80
2023-04-12T09:02:06.361Z,13.80
2023-04-12T09:04:33.520Z,13.70
2023-04-12T09:07:00.560Z,13.90
2023-04-12T09:09:42.967Z,13.80
2023-04-12T09:12:09.891Z,13.90
2023-04-12T09:14:38.104Z,13.90
2023-04-12T09:17:05.412Z,13.90
2023-04-12T09:19:32.891Z,14.00
2023-04-12T09:21:59.831Z,13.90
2023-04-12T09:24:29.272Z,13.90
2023-04-12T09:27:07.003Z,13.90
2023-04-12T09:29:36.818Z,13.90
2023-04-12T09:32:04.867Z,14.00
2023-04-12T09:34:32.263Z,13.90
2023-04-12T09:36:59.350Z,14.00
2023-04-12T09:39:35.489Z,14.00
2023-04-12T09:42:25.053Z,14.00
2023-04-12T09:44:56.965Z,14.00
2023-04-12T09:47:43.985Z,14.00
2023-04-12T09:50:19.619Z,14.00
2023-04-12T09:52:46.504Z,14.00
2023-04-12T09:55:13.575Z,14.00
2023-04-12T09:57:44.312Z,14.00
2023-04-12T10:00:18.519Z,14.10
2023-04-12T10:02:47.053Z,14.20
2023-04-12T10:05:16.288Z,14.20
2023-04-12T10:07:43.615Z,14.20
2023-04-12T10:10:14.804Z,14.20
2023-04-12T10:12:42.118Z,14.20
2023-04-12T10:15:20.953Z,14.20
2023-04-12T10:17:54.419Z,14.20
2023-04-12T10:20:22.037Z,14.20
2023-04-12T10:22:50.082Z,14.20
2023-04-12T10:25:18.209Z,14.20
2023-04-12T10:27:45.685Z,14.10
2023-04-12T10:30:19.510Z,14.20
2023-04-12T10:32:47.387Z,14.20
2023-04-12T10:35:14.406Z,14.30
2023-04-12T10:38:02.873Z,14.30
2023-04-12T10:40:31.500Z,14.30
2023-04-12T10:43:17.042Z,14.30
2023-04-12T10:45:43.731Z,14.30
2023-04-12T10:48:29.439Z,14.30
2023-04-12T10:51:25.811Z,14.30
2023-04-12T10:53:53.283Z,14.30
2023-04-12T10:56:30.756Z,14.30
2023-04-12T10:59:00.051Z,14.30
2023-04-12T11:01:27.636Z,14.30
2023-04-12T11:04:13.817Z,14.30
2023-04-12T11:06:43.713Z,14.40
2023-04-12T11:09:25.301Z,14.40
2023-04-12T11:11:58.807Z,14.40
2023-04-12T11:14:27.792Z,14.40
2023-04-12T11:17:09.440Z,14.40
2023-04-12T11:19:40.285Z,14.40
2023-04-12T11:22:08.093Z,14.40
2023-04-12T11:24:37.988Z,14.40
2023-04-12T11:27:04.901Z,14.40
2023-04-12T11:29:32.631Z,14.50
2023-04-12T11:31:59.495Z,14.50
2023-04-12T11:34:26.354Z,14.40
2023-04-12T11:36:53.734Z,14.40
2023-04-12T11:39:21.303Z,14.50
2023-04-12T11:41:48.687Z,14.50
2023-04-12T11:44:18.995Z,14.50
2023-04-12T11:46:46.430Z,14.50
2023-04-12T11:49:17.477Z,14.50
2023-04-12T11:51:45.399Z,14.50
2023-04-12T11:54:13.817Z,14.50
2023-04-12T11:56:41.427Z,14.60
2023-04-12T11:59:08.830Z,14.60
2023-04-12T12:01:36.069Z,14.60
2023-04-12T12:04:03.325Z,14.60
2023-04-12T12:06:31.576Z,14.60
2023-04-12T12:08:58.798Z,14.60
2023-04-12T12:11:26.775Z,14.70
2023-04-12T12:13:54.456Z,14.70
2023-04-12T12:16:25.689Z,14.70
2023-04-12T12:18:52.979Z,14.70
2023-04-12T12:21:20.743Z,14.60
2023-04-12T12:23:48.692Z,14.60
2023-04-12T12:26:22.828Z,14.60
2023-04-12T12:28:53.916Z,14.60
2023-04-12T12:31:21.921Z,14.50
2023-04-12T12:33:48.987Z,14.60
2023-04-12T12:36:20.955Z,14.60
2023-04-12T12:38:49.377Z,14.60
2023-04-12T12:41:20.053Z,14.60
2023-04-12T12:43:47.016Z,14.60
2023-04-12T12:46:14.110Z,14.60
2023-04-12T12:48:41.999Z,14.60
2023-04-12T12:51:09.911Z,14.60
2023-04-12T12:53:36.950Z,14.60
2023-04-12T12:56:03.749Z,14.60
2023-04-12T12:58:30.741Z,14.70
2023-04-12T13:00:57.490Z,14.70
2023-04-12T13:03:24.376Z,14.70
2023-04-12T13:05:51.528Z,14.70
2023-04-12T13:08:18.419Z,14.70
2023-04-12T13:10:45.154Z,14.70
2023-04-12T13:13:11.856Z,14.70
2023-04-12T13:15:39.049Z,14.70
2023-04-12T13:18:06.180Z,14.60
2023-04-12T13:20:33.218Z,14.60
2023-04-12T13:23:00.833Z,14.70
2023-04-12T13:25:27.649Z,14.60
2023-04-12T13:27:54.375Z,14.70
2023-04-12T13:30:21.299Z,14.70
2023-04-12T13:32:48.033Z,14.70
2023-04-12T13:35:14.829Z,14.70
2023-04-12T13:37:42.171Z,14.70
2023-04-12T13:40:09.070Z,14.60
2023-04-12T13:42:35.914Z,14.70
2023-04-12T13:45:04.144Z,14.70
2023-04-12T13:47:31.815Z,14.60
2023-04-12T13:49:58.533Z,14.60
2023-04-12T13:52:25.882Z,14.70
2023-04-12T13:54:52.767Z,14.70
2023-04-12T13:57:19.494Z,14.70
2023-04-12T13:59:46.328Z,14.80
2023-04-12T14:02:15.376Z,14.70
2023-04-12T14:04:52.798Z,14.70
2023-04-12T14:07:19.747Z,14.70
2023-04-12T14:09:48.416Z,14.70
2023-04-12T14:12:15.588Z,14.80
2023-04-12T14:14:42.436Z,14.70
2023-04-12T14:17:09.265Z,14.80
2023-04-12T14:19:36.126Z,14.80
2023-04-12T14:22:02.836Z,14.80
2023-04-12T14:24:29.666Z,14.80
2023-04-12T14:26:57.341Z,14.90
2023-04-12T14:29:24.037Z,14.90
2023-04-12T14:31:50.700Z,14.80
2023-04-12T14:34:17.499Z,14.80
2023-04-12T14:36:44.159Z,14.80
2023-04-12T14:39:13.254Z,14.90
2023-04-12T14:41:40.947Z,14.90
2023-04-12T14:44:07.647Z,14.90
2023-04-12T14:46:34.395Z,14.90
2023-04-12T14:49:01.675Z,14.90
2023-04-12T14:51:29.378Z,14.90
2023-04-12T14:53:56.683Z,14.80
2023-04-12T14:56:25.328Z,14.90
2023-04-12T14:58:54.132Z,14.90
2023-04-12T15:01:21.270Z,14.90
2023-04-12T15:03:48.270Z,14.90
2023-04-12T15:06:15.575Z,14.90
2023-04-12T15:08:42.987Z,14.90
2023-04-12T15:11:10.434Z,14.90
2023-04-12T15:13:41.509Z,15.00
2023-04-12T15:16:09.157Z,15.00
2023-04-12T15:18:38.225Z,14.90
2023-04-12T15:21:08.956Z,15.00
2023-04-12T15:23:36.004Z,15.00
2023-04-12T15:26:03.446Z,15.00
2023-04-12T15:28:31.681Z,15.00
2023-04-12T15:30:58.824Z,15.00
2023-04-12T15:33:26.331Z,15.00
2023-04-12T15:35:53.515Z,15.00
2023-04-12T15:38:23.562Z,14.90
2023-04-12T15:40:54.698Z,15.00
2023-04-12T15:43:21.761Z,15.00
2023-04-12T15:45:48.618Z,14.90
2023-04-12T15:48:15.484Z,14.90
2023-04-12T15:50:42.222Z,14.90
2023-04-12T15:53:08.988Z,14.90
2023-04-12T15:55:36.190Z,14.90
2023-04-12T15:58:02.905Z,14.90
2023-04-12T16:00:30.608Z,14.90
2023-04-12T16:02:57.734Z,14.90
2023-04-12T16:05:24.866Z,14.80
2023-04-12T16:07:51.722Z,14.80
2023-04-12T16:10:21.129Z,14.80
2023-04-12T16:12:51.828Z,14.80
2023-04-12T16:15:19.494Z,14.80
2023-04-12T16:17:52.073Z,14.80
2023-04-12T16:20:21.516Z,14.80
2023-04-12T16:22:48.805Z,14.80
2023-04-12T16:25:17.008Z,14.80
2023-04-12T16:27:44.736Z,14.80
2023-04-12T16:30:12.132Z,14.80
2023-04-12T16:32:39.150Z,14.90
2023-04-12T16:35:06.880Z,14.80
2023-04-12T16:37:33.918Z,14.80
2023-04-12T16:40:00.790Z,14.80
2023-04-12T16:42:28.384Z,14.90
2023-04-12T16:44:55.086Z,14.90
2023-04-12T16:47:22.136Z,14.90
2023-04-12T16:49:48.964Z,14.80
2023-04-12T16:52:16.535Z,14.80
2023-04-12T16:54:43.769Z,14.80
2023-04-12T16:57:11.783Z,14.80
2023-04-12T16:59:42.339Z,14.80
2023-04-12T17:02:09.218Z,14.80
2023-04-12T17:04:36.247Z,14.80
2023-04-12T17:07:03.004Z,14.80
2023-04-12T17:09:29.916Z,14.80
2023-04-12T17:11:56.754Z,14.80
2023-04-12T17:14:23.429Z,14.80
2023-04-12T17:16:50.258Z,14.80
2023-04-12T17:19:17.318Z,14.80
2023-04-12T17:21:44.729Z,14.70
2023-04-12T17:24:12.183Z,14.70
2023-04-12T17:26:40.356Z,14.70
2023-04-12T17:29:07.321Z,14.70
2023-04-12T17:34:06.616Z,14.70
2023-04-12T17:36:33.824Z,14.70
2023-04-12T17:39:01.835Z,14.60
2023-04-12T17:41:28.753Z,14.60
2023-04-12T17:43:55.819Z,14.60
2023-04-12T17:46:24.254Z,14.60
2023-04-12T17:48:51.225Z,14.60
2023-04-12T17:51:17.979Z,14.60
2023-04-12T17:53:45.911Z,14.60
2023-04-12T17:56:12.609Z,14.60
2023-04-12T17:58:39.301Z,14.60
2023-04-12T18:01:06.151Z,14.60
2023-04-12T18:03:34.480Z,14.60
2023-04-12T18:06:04.108Z,14.60
2023-04-12T18:08:31.136Z,14.60
2023-04-12T18:10:57.999Z,14.60
2023-04-12T18:13:24.806Z,14.60
2023-04-12T18:15:51.964Z,14.60
2023-04-12T18:18:18.717Z,14.60
2023-04-12T18:20:45.735Z,14.60
2023-04-12T18:23:12.531Z,14.60
2023-04-12T18:25:39.291Z,14.60
2023-04-12T18:28:07.136Z,14.60
2023-04-12T18:30:34.704Z,14.60
2023-04-12T18:33:03.480Z,14.60
2023-04-12T18:35:31.042Z,14.60
2023-04-12T18:37:57.802Z,14.70
2023-04-12T18:40:24.559Z,14.60
2023-04-12T18:42:51.306Z,14.60
2023-04-12T18:45:20.080Z,14.60
2023-04-12T18:47:46.862Z,14.60
2023-04-12T18:50:14.587Z,14.60
2023-04-12T18:52:41.436Z,14.60
2023-04-12T18:55:08.353Z,14.60
2023-04-12T18:57:35.365Z,14.60
2023-04-12T19:00:05.733Z,14.60
2023-04-12T19:02:34.346Z,14.60
2023-04-12T19:05:02.966Z,14.60
2023-04-12T19:07:29.775Z,14.60
2023-04-12T19:09:56.635Z,14.60
2023-04-12T19:12:23.344Z,14.60
2023-04-12T19:14:50.142Z,14.60
2023-04-12T19:17:17.938Z,14.60
2023-04-12T19:19:44.987Z,14.60
2023-04-12T19:22:14.212Z,14.60
2023-04-12T19:24:41.690Z,14.60
2023-04-12T19:27:09.519Z,14.60
2023-04-12T19:29:40.513Z,14.60
2023-04-12T19:32:21.491Z,14.60
2023-04-12T19:34:51.677Z,14.60
2023-04-12T19:37:25.314Z,14.50
2023-04-12T19:39:52.243Z,14.50
2023-04-12T19:42:19.515Z,14.60
2023-04-12T19:44:48.528Z,14.50
2023-04-12T19:47:18.050Z,14.50
2023-04-12T19:49:54.847Z,14.50
2023-04-12T19:52:24.055Z,14.50
2023-04-12T19:54:53.821Z,14.50
2023-04-12T19:57:23.216Z,14.50
2023-04-12T19:59:58.618Z,14.50
2023-04-12T20:02:26.280Z,14.50
2023-04-12T20:04:53.954Z,14.40
2023-04-12T20:07:22.143Z,14.40
2023-04-12T20:09:50.362Z,14.30
2023-04-12T20:12:19.806Z,14.30
2023-04-12T20:14:49.518Z,14.30
2023-04-12T20:17:17.489Z,14.30
2023-04-12T20:19:49.998Z,14.30
2023-04-12T20:22:19.292Z,14.20
2023-04-12T20:24:47.666Z,14.30
2023-04-12T20:27:18.229Z,14.20
2023-04-12T20:29:45.523Z,14.10
2023-04-12T20:32:15.959Z,14.10
2023-04-12T20:34:46.698Z,14.10
2023-04-12T20:37:16.176Z,14.10
2023-04-12T20:39:44.815Z,14.10
2023-04-12T20:42:23.467Z,14.00
2023-04-12T20:44:50.439Z,14.00
2023-04-12T20:47:18.002Z,14.10
2023-04-12T20:49:47.554Z,14.10
2023-04-12T20:52:16.987Z,14.10
2023-04-12T20:54:46.385Z,14.00
2023-04-12T20:57:16.581Z,14.00
2023-04-12T20:59:44.167Z,14.00
2023-04-12T21:02:11.309Z,13.90
2023-04-12T21:04:39.285Z,14.00
2023-04-12T21:07:07.277Z,13.90
2023-04-12T21:09:34.190Z,13.90
2023-04-12T21:12:05.020Z,14.00
2023-04-12T21:14:32.283Z,14.00
2023-04-12T21:17:00.686Z,14.00
2023-04-12T21:19:27.439Z,14.00
2023-04-12T21:21:54.176Z,13.90
2023-04-12T21:24:21.778Z,13.90
2023-04-12T21:26:54.342Z,13.80
2023-04-12T21:29:21.001Z,13.90
2023-04-12T21:31:47.903Z,13.90
2023-04-12T21:34:17.114Z,13.90
2023-04-12T21:36:44.179Z,14.00
2023-04-12T21:39:11.420Z,13.90
2023-04-12T21:41:38.128Z,13.90
2023-04-12T21:44:04.820Z,13.90
2023-04-12T21:46:31.729Z,13.90
2023-04-12T21:48:58.670Z,13.90
2023-04-12T21:51:26.451Z,13.80
2023-04-12T21:53:53.279Z,13.80
2023-04-12T21:56:19.986Z,13.80
2023-04-12T21:58:46.716Z,13.80
2023-04-12T22:01:14.275Z,13.80
2023-04-12T22:03:42.345Z,13.80
2023-04-12T22:06:09.542Z,13.80
2023-04-12T22:08:36.466Z,13.80
2023-04-12T22:11:03.185Z,13.80
2023-04-12T22:13:30.728Z,13.70
2023-04-12T22:15:58.158Z,13.80
2023-04-12T22:18:24.922Z,13.70
2023-04-12T22:20:52.551Z,13.70
2023-04-12T22:23:19.490Z,13.70
2023-04-12T22:25:46.250Z,13.80
2023-04-12T22:28:12.955Z,13.70
2023-04-12T22:30:39.915Z,13.70
2023-04-12T22:33:08.532Z,13.70
2023-04-12T22:35:36.402Z,13.70
2023-04-12T22:38:04.202Z,13.70
2023-04-12T22:40:30.929Z,13.60
2023-04-12T22:42:58.274Z,13.60
2023-04-12T22:45:25.254Z,13.60
2023-04-12T22:47:52.994Z,13.60
2023-04-12T22:50:19.916Z,13.50
2023-04-12T22:52:49.968Z,13.50
2023-04-12T22:55:18.162Z,13.60
2023-04-12T22:57:45.065Z,13.60
2023-04-12T23:00:17.074Z,13.50
2023-04-12T23:02:45.060Z,13.50
2023-04-12T23:05:12.716Z,13.50
2023-04-12T23:07:41.683Z,13.50
2023-04-12T23:10:08.920Z,13.50
2023-04-12T23:12:37.377Z,13.40
2023-04-12T23:15:06.133Z,13.50
2023-04-12T23:17:32.927Z,13.50
2023-04-12T23:20:02.112Z,13.40
2023-04-12T23:22:55.268Z,13.40
2023-04-12T23:25:24.641Z,13.40
2023-04-12T23:27:51.577Z,13.50
2023-04-12T23:30:18.746Z,13.50
2023-04-12T23:32:46.075Z,13.40
2023-04-12T23:35:14.454Z,13.50
2023-04-12T23:37:41.756Z,13.50
2023-04-12T23:40:14.008Z,13.40
2023-04-12T23:42:41.253Z,13.40
2023-04-12T23:45:08.868Z,13.40
2023-04-12T23:47:35.647Z,13.30
2023-04-12T23:50:03.050Z,13.30
2023-04-12T23:52:29.809Z,13.30
2023-04-12T23:54:56.650Z,13.40
2023-04-12T23:57:24.049Z,13.30
2023-04-12T23:59:51.615Z,13.30
